createdAt,value
2018-10-02T00:00:33.820Z,1.13
2018-10-02T00:03:03.816Z,1.33
2018-10-02T00:05:33.060Z,1.50
2018-10-02T00:08:02.282Z,1.40
2018-10-02T00:10:31.563Z,1.73
2018-10-02T00:13:06.144Z,1.77
2018-10-02T00:15:35.653Z,1.50
2018-10-02T00:18:04.941Z,1.57
2018-10-02T00:20:34.227Z,1.60
2018-10-02T00:23:03.456Z,1.70
2018-10-02T00:25:32.688Z,1.50
2018-10-02T00:28:01.922Z,1.60
2018-10-02T00:30:31.144Z,1.43
2018-10-02T00:33:00.363Z,1.80
2018-10-02T00:35:29.563Z,1.57
2018-10-02T00:37:58.765Z,1.20
2018-10-02T00:40:27.988Z,1.73
2018-10-02T00:42:57.275Z,1.97
2018-10-02T00:45:26.478Z,1.20
2018-10-02T00:47:55.677Z,1.87
2018-10-02T00:50:24.889Z,1.50
2018-10-02T00:52:54.230Z,1.20
2018-10-02T00:55:23.478Z,1.33
2018-10-02T00:57:52.751Z,1.17
2018-10-02T01:00:22.575Z,1.40
2018-10-02T01:02:51.859Z,1.40
2018-10-02T01:05:21.119Z,1.50
2018-10-02T01:07:50.538Z,1.23
2018-10-02T01:10:19.748Z,1.20
2018-10-02T01:12:49.092Z,1.50
2018-10-02T01:15:18.349Z,1.60
2018-10-02T01:17:47.559Z,1.83
2018-10-02T01:20:16.759Z,1.77
2018-10-02T01:22:46.023Z,1.50
2018-10-02T01:25:15.291Z,1.87
2018-10-02T01:27:44.511Z,1.90
2018-10-02T01:30:13.762Z,1.40
2018-10-02T01:32:43.503Z,1.80
2018-10-02T01:35:12.763Z,1.83
2018-10-02T01:37:42.083Z,1.80
2018-10-02T01:40:11.283Z,1.60
2018-10-02T01:42:40.495Z,1.80
2018-10-02T01:45:09.720Z,1.50
2018-10-02T01:47:38.945Z,2.03
2018-10-02T01:50:08.309Z,1.47
2018-10-02T01:52:37.608Z,1.50
2018-10-02T01:55:06.915Z,1.73
2018-10-02T01:57:36.775Z,1.80
2018-10-02T02:00:06.308Z,2.13
2018-10-02T02:02:35.591Z,1.87
2018-10-02T02:05:05.618Z,1.80
2018-10-02T02:07:34.942Z,1.60
2018-10-02T02:10:05.006Z,1.93
2018-10-02T02:12:34.747Z,1.60
2018-10-02T02:15:04.621Z,1.60
2018-10-02T02:17:34.275Z,1.87
2018-10-02T02:20:03.626Z,2.07
2018-10-02T02:22:32.823Z,1.90
2018-10-02T02:25:03.179Z,1.63
2018-10-02T02:27:32.408Z,1.70
2018-10-02T02:30:01.719Z,1.50
2018-10-02T02:32:30.993Z,1.40
2018-10-02T02:35:00.516Z,1.67
2018-10-02T02:37:30.339Z,1.43
2018-10-02T02:40:01.045Z,1.50
2018-10-02T02:42:30.283Z,1.57
2018-10-02T02:44:59.491Z,1.60
2018-10-02T02:47:34.962Z,1.53
2018-10-02T02:50:09.651Z,1.77
2018-10-02T02:52:41.988Z,1.87
2018-10-02T02:55:11.120Z,1.50
2018-10-02T02:57:40.337Z,1.67
2018-10-02T03:00:09.807Z,1.83
2018-10-02T03:02:39.003Z,1.50
2018-10-02T03:05:08.358Z,1.83
2018-10-02T03:07:38.330Z,1.90
2018-10-02T03:10:07.699Z,1.60
2018-10-02T03:12:37.875Z,1.70
2018-10-02T03:15:07.750Z,1.57
2018-10-02T03:17:37.197Z,1.37
2018-10-02T03:20:06.580Z,1.50
2018-10-02T03:22:35.779Z,1.70
2018-10-02T03:25:05.130Z,2.10
2018-10-02T03:27:34.354Z,1.40
2018-10-02T03:30:03.701Z,1.70
2018-10-02T03:32:32.900Z,1.47
2018-10-02T03:35:03.216Z,1.50
2018-10-02T03:37:33.023Z,1.57
2018-10-02T03:40:02.331Z,1.90
2018-10-02T03:42:31.689Z,2.03
2018-10-02T03:45:00.959Z,1.80
2018-10-02T03:47:30.224Z,2.83
2018-10-02T03:49:59.409Z,1.77
2018-10-02T03:52:28.625Z,1.57
2018-10-02T03:54:57.977Z,1.83
2018-10-02T03:57:27.379Z,1.80
2018-10-02T03:59:56.567Z,2.30
2018-10-02T04:02:25.906Z,2.10
2018-10-02T04:04:55.308Z,1.77
2018-10-02T04:07:25.003Z,1.90
2018-10-02T04:09:54.371Z,1.70
2018-10-02T04:12:24.211Z,1.80
2018-10-02T04:14:53.516Z,2.07
2018-10-02T04:17:22.956Z,2.37
2018-10-02T04:19:52.228Z,2.20
2018-10-02T04:22:21.666Z,2.10
2018-10-02T04:24:51.037Z,2.43
2018-10-02T04:27:20.293Z,2.43
2018-10-02T04:29:49.540Z,2.57
2018-10-02T04:32:18.775Z,2.10
2018-10-02T04:34:48.003Z,2.27
2018-10-02T04:37:17.201Z,2.07
2018-10-02T04:39:46.556Z,2.40
2018-10-02T04:42:15.775Z,2.60
2018-10-02T04:44:44.987Z,3.27
2018-10-02T04:47:14.223Z,3.00
2018-10-02T04:49:43.430Z,3.50
2018-10-02T04:52:12.712Z,3.23
2018-10-02T04:54:41.951Z,3.97
2018-10-02T04:57:12.202Z,4.20
2018-10-02T04:59:41.552Z,4.00
2018-10-02T05:02:10.819Z,4.80
2018-10-02T05:04:40.061Z,5.07
2018-10-02T05:07:09.308Z,4.63
2018-10-02T05:09:38.544Z,5.13
2018-10-02T05:12:08.359Z,5.20
2018-10-02T05:14:37.568Z,4.97
2018-10-02T05:17:06.801Z,4.97
2018-10-02T05:19:36.000Z,5.10
2018-10-02T05:22:05.218Z,5.30
2018-10-02T05:24:34.448Z,5.03
2018-10-02T05:27:03.778Z,5.23
2018-10-02T05:29:32.996Z,4.90
2018-10-02T05:32:02.215Z,5.57
2018-10-02T05:34:31.420Z,5.87
2018-10-02T05:37:00.642Z,5.33
2018-10-02T05:39:29.845Z,5.70
2018-10-02T05:41:59.051Z,6.40
2018-10-02T05:44:28.355Z,6.70
2018-10-02T05:46:57.567Z,6.90
2018-10-02T05:49:26.748Z,7.77
2018-10-02T05:51:55.954Z,8.30
2018-10-02T05:54:25.172Z,7.70
2018-10-02T05:56:54.487Z,8.50
2018-10-02T05:59:23.731Z,8.33
2018-10-02T06:01:54.076Z,9.60
2018-10-02T06:04:23.307Z,10.00
2018-10-02T06:06:52.648Z,10.43
2018-10-02T06:09:22.044Z,9.80
2018-10-02T06:11:51.249Z,11.33
2018-10-02T06:14:20.510Z,11.27
2018-10-02T06:16:49.745Z,12.20
2018-10-02T06:19:19.090Z,12.53
2018-10-02T06:21:48.496Z,12.70
2018-10-02T06:24:18.327Z,11.97
2018-10-02T06:26:47.587Z,13.00
2018-10-02T06:29:16.798Z,12.77
2018-10-02T06:31:46.041Z,12.90
2018-10-02T06:34:15.830Z,14.20
2018-10-02T06:36:45.157Z,13.77
2018-10-02T06:39:15.053Z,13.57
2018-10-02T06:41:44.271Z,13.73
2018-10-02T06:44:13.477Z,13.97
2018-10-02T06:46:42.811Z,13.73
2018-10-02T06:49:12.190Z,14.20
2018-10-02T06:51:41.565Z,14.57
2018-10-02T06:54:10.784Z,14.37
2018-10-02T06:56:40.052Z,14.60
2018-10-02T06:59:14.276Z,14.43
2018-10-02T07:01:43.499Z,14.03
2018-10-02T07:04:12.945Z,14.67
2018-10-02T07:06:42.391Z,14.67
2018-10-02T07:09:11.905Z,14.47
2018-10-02T07:11:41.711Z,15.10
2018-10-02T07:14:11.311Z,14.77
2018-10-02T07:16:41.293Z,14.03
2018-10-02T07:19:10.764Z,14.30
2018-10-02T07:21:41.131Z,14.33
2018-10-02T07:24:10.457Z,14.00
2018-10-02T07:26:39.800Z,14.30
2018-10-02T07:29:09.115Z,13.60
2018-10-02T07:31:39.396Z,14.10
2018-10-02T07:34:08.755Z,13.00
2018-10-02T07:36:38.095Z,13.17
2018-10-02T07:39:08.299Z,12.80
2018-10-02T07:41:38.330Z,13.53
2018-10-02T07:44:07.504Z,12.90
2018-10-02T07:46:36.734Z,14.33
2018-10-02T07:49:06.824Z,13.00
2018-10-02T07:51:36.169Z,12.53
2018-10-02T07:54:06.367Z,12.77
2018-10-02T07:56:35.676Z,12.00
2018-10-02T07:59:05.308Z,12.03
2018-10-02T08:01:34.617Z,11.93
2018-10-02T08:04:03.928Z,11.80
2018-10-02T08:06:33.360Z,11.23
2018-10-02T08:09:03.962Z,10.83
2018-10-02T08:11:33.225Z,10.67
2018-10-02T08:14:02.432Z,10.63
2018-10-02T08:16:31.665Z,10.27
2018-10-02T08:19:00.967Z,10.53
2018-10-02T08:21:30.889Z,10.27
2018-10-02T08:24:00.090Z,9.83
2018-10-02T08:26:29.338Z,10.03
2018-10-02T08:28:58.644Z,9.77
2018-10-02T08:31:28.531Z,9.37
2018-10-02T08:33:57.798Z,8.80
2018-10-02T08:36:27.161Z,7.93
2018-10-02T08:38:56.399Z,7.97
2018-10-02T08:41:25.696Z,8.03
2018-10-02T08:43:55.036Z,8.23
2018-10-02T08:46:25.081Z,8.17
2018-10-02T08:48:54.303Z,7.80
2018-10-02T08:51:23.608Z,8.00
2018-10-02T08:53:53.644Z,7.33
2018-10-02T08:56:23.462Z,7.10
2018-10-02T08:58:54.903Z,6.67
2018-10-02T09:01:24.127Z,6.80
2018-10-02T09:03:53.347Z,6.40
2018-10-02T09:06:22.643Z,6.27
2018-10-02T09:08:51.817Z,6.73
2018-10-02T09:11:21.088Z,6.40
2018-10-02T09:13:50.373Z,10.77
2018-10-02T09:16:19.699Z,5.40
2018-10-02T09:18:50.058Z,5.60
2018-10-02T09:21:19.289Z,5.13
2018-10-02T09:23:48.657Z,5.30
2018-10-02T09:26:18.038Z,5.00
2018-10-02T09:28:47.478Z,4.40
2018-10-02T09:31:22.192Z,3.90
2018-10-02T09:33:56.786Z,3.23
2018-10-02T09:36:32.055Z,2.70
2018-10-02T09:39:06.761Z,2.60
2018-10-02T09:41:41.415Z,2.13
2018-10-02T09:44:10.759Z,1.90
2018-10-02T09:46:40.004Z,2.20
2018-10-02T09:49:09.265Z,1.83
2018-10-02T09:51:38.583Z,1.97
2018-10-02T09:54:07.928Z,2.10
2018-10-02T09:56:44.675Z,1.70
2018-10-02T09:59:15.343Z,1.93
2018-10-02T10:01:50.868Z,1.43
2018-10-02T10:04:20.243Z,1.73
2018-10-02T10:06:49.535Z,2.00
2018-10-02T10:09:18.986Z,1.90
2018-10-02T10:11:49.634Z,2.03
2018-10-02T10:14:18.956Z,2.10
2018-10-02T10:16:48.410Z,1.57
2018-10-02T10:19:17.797Z,1.80
2018-10-02T10:21:47.340Z,1.50
2018-10-02T10:24:16.588Z,1.60
2018-10-02T10:26:45.847Z,1.67
2018-10-02T10:29:15.093Z,1.90
2018-10-02T10:31:44.361Z,1.70
2018-10-02T10:34:14.196Z,2.27
2018-10-02T10:36:44.197Z,1.93
2018-10-02T10:39:13.616Z,2.30
2018-10-02T10:41:42.924Z,2.30
2018-10-02T10:44:12.320Z,2.77
2018-10-02T10:46:42.400Z,2.43
2018-10-02T10:49:12.272Z,3.57
2018-10-02T10:51:42.884Z,2.90
2018-10-02T10:54:12.125Z,3.50
2018-10-02T10:56:41.612Z,3.47
2018-10-02T10:59:11.205Z,2.70
2018-10-02T11:01:40.860Z,3.60
2018-10-02T11:04:10.232Z,2.73
2018-10-02T11:06:39.435Z,2.80
2018-10-02T11:09:10.215Z,2.10
2018-10-02T11:11:39.609Z,2.50
2018-10-02T11:14:09.069Z,2.40
2018-10-02T11:16:38.549Z,2.90
2018-10-02T11:19:07.833Z,3.00
2018-10-02T11:21:37.080Z,2.70
2018-10-02T11:24:06.377Z,2.83
2018-10-02T11:26:35.646Z,2.70
2018-10-02T11:29:04.980Z,2.37
2018-10-02T11:31:34.213Z,2.17
2018-10-02T11:34:03.589Z,2.20
2018-10-02T11:36:32.818Z,2.20
2018-10-02T11:39:02.184Z,1.97
2018-10-02T11:41:31.568Z,1.90
2018-10-02T11:44:00.909Z,1.93
2018-10-02T11:46:30.080Z,2.83
2018-10-02T11:48:59.599Z,2.70
2018-10-02T11:51:28.884Z,2.90
2018-10-02T11:54:02.529Z,3.10
2018-10-02T11:56:31.741Z,3.20
2018-10-02T11:59:00.984Z,2.73
2018-10-02T12:01:30.392Z,2.67
2018-10-02T12:03:59.791Z,2.77
2018-10-02T12:06:29.180Z,3.10
2018-10-02T12:08:58.578Z,3.33
2018-10-02T12:11:27.819Z,3.23
2018-10-02T12:13:57.865Z,3.57
2018-10-02T12:16:27.059Z,2.73
2018-10-02T12:18:57.021Z,2.70
2018-10-02T12:21:26.246Z,2.80
2018-10-02T12:23:55.801Z,2.67
2018-10-02T12:26:25.333Z,2.57
2018-10-02T12:28:54.561Z,2.70
2018-10-02T12:31:23.884Z,2.47
2018-10-02T12:33:54.465Z,2.80
2018-10-02T12:36:23.756Z,2.90
2018-10-02T12:38:52.991Z,3.03
2018-10-02T12:41:22.256Z,2.60
2018-10-02T12:43:52.518Z,3.37
2018-10-02T12:46:21.788Z,3.37
2018-10-02T12:48:51.184Z,2.80
2018-10-02T12:51:20.600Z,4.23
2018-10-02T12:53:49.960Z,4.30
2018-10-02T12:56:19.828Z,3.67
2018-10-02T12:58:49.101Z,4.03
2018-10-02T13:01:18.548Z,4.30
2018-10-02T13:03:47.860Z,3.17
2018-10-02T13:06:17.204Z,3.57
2018-10-02T13:08:46.413Z,3.40
2018-10-02T13:11:15.705Z,3.77
2018-10-02T13:13:45.024Z,3.87
2018-10-02T13:16:14.325Z,3.30
2018-10-02T13:18:43.748Z,3.37
2018-10-02T13:21:13.023Z,3.87
2018-10-02T13:23:42.364Z,3.50
2018-10-02T13:26:11.617Z,3.70
2018-10-02T13:28:40.832Z,3.50
2018-10-02T13:31:10.033Z,3.07
2018-10-02T13:33:39.245Z,3.20
2018-10-02T13:36:08.801Z,3.50
2018-10-02T13:38:38.073Z,3.63
2018-10-02T13:41:08.080Z,4.17
2018-10-02T13:43:38.053Z,3.87
2018-10-02T13:46:07.465Z,3.47
2018-10-02T13:48:37.485Z,3.57
2018-10-02T13:51:07.202Z,3.43
2018-10-02T13:53:36.558Z,3.93
2018-10-02T13:56:06.487Z,3.40
2018-10-02T13:58:35.732Z,3.70
2018-10-02T14:01:05.031Z,3.30
2018-10-02T14:03:34.932Z,3.60
2018-10-02T14:06:04.279Z,3.23
2018-10-02T14:08:33.691Z,4.17
2018-10-02T14:11:03.363Z,3.70
2018-10-02T14:13:32.969Z,3.80
2018-10-02T14:16:02.451Z,3.80
2018-10-02T14:18:33.336Z,3.77
2018-10-02T14:21:02.581Z,3.13
2018-10-02T14:23:32.640Z,3.07
2018-10-02T14:26:02.092Z,3.10
2018-10-02T14:28:32.147Z,3.30
2018-10-02T14:31:02.097Z,3.00
2018-10-02T14:33:31.349Z,3.40
2018-10-02T14:36:00.575Z,3.73
2018-10-02T14:38:30.005Z,3.57
2018-10-02T14:40:59.362Z,3.33
2018-10-02T14:43:28.584Z,3.83
2018-10-02T14:45:59.104Z,4.13
2018-10-02T14:48:28.926Z,3.80
2018-10-02T14:50:58.789Z,3.57
2018-10-02T14:53:28.624Z,4.50
2018-10-02T14:55:57.890Z,4.07
2018-10-02T14:58:27.233Z,4.07
2018-10-02T15:00:57.321Z,3.90
2018-10-02T15:03:26.674Z,3.27
2018-10-02T15:05:56.564Z,4.03
2018-10-02T15:08:25.925Z,3.90
2018-10-02T15:10:55.176Z,4.13
2018-10-02T15:13:24.436Z,4.47
2018-10-02T15:15:53.676Z,5.00
2018-10-02T15:18:23.664Z,3.67
2018-10-02T15:20:52.930Z,3.20
2018-10-02T15:23:22.144Z,3.80
2018-10-02T15:25:51.471Z,3.43
2018-10-02T15:28:20.845Z,3.33
2018-10-02T15:30:50.242Z,3.33
2018-10-02T15:33:19.781Z,3.17
2018-10-02T15:35:49.176Z,3.87
2018-10-02T15:38:18.515Z,3.00
2018-10-02T15:40:48.568Z,3.83
2018-10-02T15:43:17.808Z,4.30
2018-10-02T15:45:47.053Z,3.53
2018-10-02T15:48:17.156Z,4.30
2018-10-02T15:50:46.403Z,3.77
2018-10-02T15:53:15.730Z,4.47
2018-10-02T15:55:45.032Z,4.37
2018-10-02T15:58:14.315Z,4.07
2018-10-02T16:00:43.722Z,3.67
2018-10-02T16:03:13.037Z,4.57
2018-10-02T16:05:42.395Z,3.57
2018-10-02T16:08:11.969Z,4.23
2018-10-02T16:10:43.413Z,3.67
2018-10-02T16:13:12.900Z,3.87
2018-10-02T16:15:42.112Z,4.30
2018-10-02T16:18:11.400Z,3.30
2018-10-02T16:20:40.591Z,3.27
2018-10-02T16:23:09.840Z,3.83
2018-10-02T16:25:39.252Z,4.17
2018-10-02T16:28:08.546Z,3.73
2018-10-02T16:30:37.786Z,3.47
2018-10-02T16:33:07.205Z,4.33
2018-10-02T16:35:36.596Z,3.70
2018-10-02T16:38:06.404Z,3.87
2018-10-02T16:40:35.673Z,3.57
2018-10-02T16:43:05.005Z,4.53
2018-10-02T16:45:34.480Z,3.57
2018-10-02T16:48:03.968Z,4.20
2018-10-02T16:50:33.264Z,4.27
2018-10-02T16:53:03.515Z,3.93
2018-10-02T16:55:32.885Z,4.00
2018-10-02T16:58:02.185Z,4.43
2018-10-02T17:00:31.423Z,3.90
2018-10-02T17:03:00.676Z,3.73
2018-10-02T17:05:29.899Z,4.20
2018-10-02T17:07:59.122Z,4.13
2018-10-02T17:10:28.340Z,4.07
2018-10-02T17:12:57.692Z,3.40
2018-10-02T17:15:27.040Z,3.77
2018-10-02T17:17:58.800Z,3.43
2018-10-02T17:20:28.269Z,3.53
2018-10-02T17:22:57.752Z,3.50
2018-10-02T17:25:27.588Z,3.83
2018-10-02T17:27:57.077Z,3.90
2018-10-02T17:30:26.336Z,3.13
2018-10-02T17:32:55.579Z,3.43
2018-10-02T17:35:24.882Z,3.97
2018-10-02T17:37:54.304Z,3.40
2018-10-02T17:40:23.666Z,4.47
2018-10-02T17:42:52.866Z,3.80
2018-10-02T17:45:22.337Z,3.83
2018-10-02T17:47:52.874Z,3.10
2018-10-02T17:50:22.177Z,3.60
2018-10-02T17:52:51.730Z,3.50
2018-10-02T17:55:21.840Z,3.23
2018-10-02T17:57:51.545Z,3.77
2018-10-02T18:00:21.689Z,3.57
2018-10-02T18:02:51.302Z,3.33
2018-10-02T18:05:20.902Z,3.83
2018-10-02T18:07:50.185Z,3.33
2018-10-02T18:10:19.712Z,4.00
2018-10-02T18:12:49.116Z,3.87
2018-10-02T18:15:18.810Z,3.90
2018-10-02T18:17:49.164Z,3.83
2018-10-02T18:20:18.452Z,3.60
2018-10-02T18:22:48.335Z,4.07
2018-10-02T18:25:17.692Z,3.77
2018-10-02T18:27:47.235Z,4.13
2018-10-02T18:30:16.964Z,3.50
2018-10-02T18:32:47.135Z,3.60
2018-10-02T18:35:17.085Z,3.60
2018-10-02T18:37:46.424Z,3.63
2018-10-02T18:40:15.817Z,3.43
2018-10-02T18:42:46.023Z,3.53
2018-10-02T18:45:16.300Z,3.63
2018-10-02T18:47:45.881Z,3.73
2018-10-02T18:50:15.133Z,3.80
2018-10-02T18:52:44.583Z,4.63
2018-10-02T18:55:13.840Z,3.90
2018-10-02T18:57:43.225Z,3.40
2018-10-02T19:00:12.710Z,4.20
2018-10-02T19:02:42.463Z,3.27
2018-10-02T19:05:11.865Z,3.60
2018-10-02T19:07:42.570Z,3.77
2018-10-02T19:10:11.995Z,2.97
2018-10-02T19:12:42.109Z,3.40
2018-10-02T19:15:12.393Z,3.30
2018-10-02T19:17:41.719Z,3.73
2018-10-02T19:20:16.257Z,3.80
2018-10-02T19:22:45.560Z,3.20
2018-10-02T19:25:20.558Z,3.57
2018-10-02T19:27:50.618Z,3.73
2018-10-02T19:30:26.411Z,3.27
2018-10-02T19:32:56.052Z,4.33
2018-10-02T19:35:25.739Z,3.03
2018-10-02T19:38:00.373Z,3.90
2018-10-02T19:40:30.396Z,3.30
2018-10-02T19:43:00.104Z,3.57
2018-10-02T19:45:34.755Z,3.40
2018-10-02T19:48:05.258Z,2.80
2018-10-02T19:50:38.946Z,3.77
2018-10-02T19:53:08.493Z,3.30
2018-10-02T19:55:37.916Z,3.30
2018-10-02T19:58:07.308Z,2.33
2018-10-02T20:00:36.921Z,2.50
2018-10-02T20:03:07.115Z,2.93
2018-10-02T20:05:36.577Z,3.23
2018-10-02T20:08:06.111Z,2.73
2018-10-02T20:10:35.738Z,2.77
2018-10-02T20:13:05.943Z,2.30
2018-10-02T20:15:35.175Z,2.97
2018-10-02T20:18:05.339Z,2.60
2018-10-02T20:20:34.664Z,3.57
2018-10-02T20:23:04.564Z,2.83
2018-10-02T20:25:34.223Z,3.07
2018-10-02T20:28:03.483Z,3.30
2018-10-02T20:30:33.828Z,3.13
2018-10-02T20:33:03.643Z,2.83
2018-10-02T20:35:32.913Z,3.07
2018-10-02T20:38:02.258Z,3.83
2018-10-02T20:40:31.759Z,2.40
2018-10-02T20:43:01.675Z,3.27
2018-10-02T20:45:31.117Z,3.80
2018-10-02T20:48:01.381Z,3.07
2018-10-02T20:50:31.169Z,2.73
2018-10-02T20:53:00.454Z,2.70
2018-10-02T20:55:29.965Z,2.60
2018-10-02T20:57:59.821Z,2.47
2018-10-02T21:00:29.475Z,2.10
2018-10-02T21:02:58.834Z,2.57
2018-10-02T21:05:28.216Z,2.47
2018-10-02T21:07:58.194Z,2.10
2018-10-02T21:10:27.425Z,2.73
2018-10-02T21:12:56.668Z,3.00
2018-10-02T21:15:26.640Z,3.10
2018-10-02T21:17:56.353Z,1.97
2018-10-02T21:20:25.769Z,2.17
2018-10-02T21:22:55.123Z,2.80
2018-10-02T21:25:24.364Z,2.40
2018-10-02T21:27:53.601Z,4.17
2018-10-02T21:30:22.837Z,3.27
2018-10-02T21:32:52.648Z,2.47
2018-10-02T21:35:21.844Z,3.17
2018-10-02T21:37:51.139Z,3.10
2018-10-02T21:40:20.506Z,3.50
2018-10-02T21:42:49.588Z,3.07
2018-10-02T21:45:19.480Z,2.93
2018-10-02T21:47:48.700Z,3.13
2018-10-02T21:50:17.972Z,3.33
2018-10-02T21:52:47.212Z,3.43
2018-10-02T21:55:17.688Z,3.30
2018-10-02T21:57:46.945Z,3.40
2018-10-02T22:00:16.311Z,2.93
2018-10-02T22:02:45.784Z,3.20
2018-10-02T22:05:15.119Z,2.57
2018-10-02T22:07:44.402Z,2.53
2018-10-02T22:10:13.679Z,2.60
2018-10-02T22:12:42.912Z,2.37
2018-10-02T22:15:12.250Z,2.33
2018-10-02T22:17:41.459Z,2.80
2018-10-02T22:20:11.291Z,3.03
2018-10-02T22:22:40.572Z,3.17
2018-10-02T22:25:09.816Z,2.90
2018-10-02T22:27:39.636Z,3.03
2018-10-02T22:30:10.944Z,3.10
2018-10-02T22:32:40.416Z,3.53
2018-10-02T22:35:10.001Z,2.80
2018-10-02T22:37:39.272Z,3.13
2018-10-02T22:40:08.855Z,2.60
2018-10-02T22:42:38.819Z,2.60
2018-10-02T22:45:08.085Z,3.07
2018-10-02T22:47:38.107Z,3.17
2018-10-02T22:50:07.441Z,3.20
2018-10-02T22:52:36.669Z,2.63
2018-10-02T22:55:05.979Z,2.40
2018-10-02T22:57:35.327Z,3.17
2018-10-02T23:00:04.626Z,2.80
2018-10-02T23:02:33.879Z,3.80
2018-10-02T23:05:03.640Z,3.40
2018-10-02T23:07:32.898Z,3.73
2018-10-02T23:10:02.255Z,3.13
2018-10-02T23:12:31.522Z,3.07
2018-10-02T23:15:01.578Z,3.43
2018-10-02T23:17:30.848Z,3.73
2018-10-02T23:20:00.061Z,2.77
2018-10-02T23:22:30.459Z,2.93
2018-10-02T23:24:59.704Z,3.13
2018-10-02T23:27:28.959Z,2.73
2018-10-02T23:29:58.278Z,2.67
2018-10-02T23:32:28.145Z,2.73
2018-10-02T23:34:57.361Z,2.70
2018-10-02T23:37:26.632Z,2.20
2018-10-02T23:39:55.896Z,2.90
2018-10-02T23:42:25.248Z,2.77
2018-10-02T23:44:54.499Z,3.10
2018-10-02T23:47:23.855Z,3.27
2018-10-02T23:49:53.307Z,3.60
2018-10-02T23:52:22.649Z,3.13
2018-10-02T23:54:51.989Z,3.33
2018-10-02T23:57:21.208Z,3.23
2018-10-02T23:59:50.422Z,2.90
